Silver Cloud — C6MQ5 — position and weather

sailwx.info

Track history (hours):
 
Tides and Currents Weather Stations Pressure Air Temp Water Temp Dewpoint Dewpoint Depression Visibility Wind Speed Wind Dir Waves Ship Positions

Silver Cloud

Operator: V Ships Leisure SAM

Last reported at 2016-May-27 16:05 UTC. Time now 2016-May-31 10:01 UTC.
Position N 40°51' E 028°48'.

Length 155 m; draft 5.7 m.

Type: Passenger vessel. MMSI: 309027000.

Date/timePositionNaut miles runAvg speedWind from/ knotsBaromVisibWave heightAir tempDewpointWater temp
2016-May-27 16:05N 40°51' E 028°48'1017.2
2016-May-27 15:29N 40°58' E 028°58'3 0.1
2016-May-26 03:30N 40°55' E 028°57'1010.1
2016-May-26 02:33N 40°48' E 028°49'  
2016-May-19 03:32N 36°43' E 023°08'1311.1
2016-May-19 02:24N 36°53' E 023°17'911.1
2016-May-19 01:33N 37°01' E 023°24'1511.3
2016-May-19 00:11N 37°13' E 023°36'711.4
2016-May-18 23:33N 37°19' E 023°41'1111.3
2016-May-18 22:33N 37°31' E 023°42'1111.4
2016-May-18 21:33N 37°42' E 023°41'1111.5
2016-May-18 20:33N 37°52' E 023°35'5 4.5
2016-May-18 19:32N 37°56' E 023°38'0 0.0
2016-May-18 18:29N 37°56' E 023°38'0 0.0
2016-May-18 17:32N 37°56' E 023°38'0 0.0
2016-May-18 16:32N 37°56' E 023°38'0 0.0
2016-May-18 15:32N 37°56' E 023°38'0 0.0
2016-May-18 14:32N 37°56' E 023°38'0 0.0
2016-May-18 13:32N 37°56' E 023°38'0 0.0
2016-May-18 08:14N 37°56' E 023°38'0 0.0
2016-May-18 07:32N 37°56' E 023°38'0 0.0
2016-May-18 06:32N 37°56' E 023°38'0 0.0
2016-May-18 05:32N 37°56' E 023°38'0 0.0
2016-May-18 04:32N 37°56' E 023°38'0 0.3
2016-May-18 03:33N 37°56' E 023°38'5 4.9
2016-May-18 02:34N 37°52' E 023°38'1111.4
2016-May-18 01:34N 37°41' E 023°45'1211.8
2016-May-18 00:34N 37°34' E 023°56'1211.7
2016-May-17 23:31N 37°29' E 024°11'1711.6
2016-May-17 22:05N 37°31' E 024°31'612.0
2016-May-17 21:33N 37°32' E 024°39'1212.1
2016-May-17 20:33N 37°33' E 024°55'1212.4
2016-May-17 19:33N 37°30' E 025°10'8 7.7
2016-May-17 18:31N 37°27' E 025°19'0 0.0
2016-May-17 17:31N 37°27' E 025°19'0 0.0
2016-May-17 16:31N 37°27' E 025°19'  
Track history (hours):
 
Tides and Currents Weather Stations Pressure Air Temp Water Temp Dewpoint Dewpoint Depression Visibility Wind Speed Wind Dir Waves Ship Positions

Silver Cloud

Operator: V Ships Leisure SAM

Last reported at 2016-May-27 16:05 UTC. Time now 2016-May-31 10:01 UTC.
Position N 40°51' E 028°48'.

Length 155 m; draft 5.7 m.

Type: Passenger vessel. MMSI: 309027000.

Date/timePositionNaut miles runAvg speedWind from/ knotsBaromVisibWave heightAir tempDewpointWater temp
2016-May-27 16:05N 40°51' E 028°48'1017.2
2016-May-27 15:29N 40°58' E 028°58'3 0.1
2016-May-26 03:30N 40°55' E 028°57'1010.1
2016-May-26 02:33N 40°48' E 028°49'  
2016-May-19 03:32N 36°43' E 023°08'1311.1
2016-May-19 02:24N 36°53' E 023°17'911.1
2016-May-19 01:33N 37°01' E 023°24'1511.3
2016-May-19 00:11N 37°13' E 023°36'711.4
2016-May-18 23:33N 37°19' E 023°41'1111.3
2016-May-18 22:33N 37°31' E 023°42'1111.4
2016-May-18 21:33N 37°42' E 023°41'1111.5
2016-May-18 20:33N 37°52' E 023°35'5 4.5
2016-May-18 19:32N 37°56' E 023°38'0 0.0
2016-May-18 18:29N 37°56' E 023°38'0 0.0
2016-May-18 17:32N 37°56' E 023°38'0 0.0
2016-May-18 16:32N 37°56' E 023°38'0 0.0
2016-May-18 15:32N 37°56' E 023°38'0 0.0
2016-May-18 14:32N 37°56' E 023°38'0 0.0
2016-May-18 13:32N 37°56' E 023°38'0 0.0
2016-May-18 08:14N 37°56' E 023°38'0 0.0
2016-May-18 07:32N 37°56' E 023°38'0 0.0
2016-May-18 06:32N 37°56' E 023°38'0 0.0
2016-May-18 05:32N 37°56' E 023°38'0 0.0
2016-May-18 04:32N 37°56' E 023°38'0 0.3
2016-May-18 03:33N 37°56' E 023°38'5 4.9
2016-May-18 02:34N 37°52' E 023°38'1111.4
2016-May-18 01:34N 37°41' E 023°45'1211.8
2016-May-18 00:34N 37°34' E 023°56'1211.7
2016-May-17 23:31N 37°29' E 024°11'1711.6
2016-May-17 22:05N 37°31' E 024°31'612.0
2016-May-17 21:33N 37°32' E 024°39'1212.1
2016-May-17 20:33N 37°33' E 024°55'1212.4
2016-May-17 19:33N 37°30' E 025°10'8 7.7
2016-May-17 18:31N 37°27' E 025°19'0 0.0
2016-May-17 17:31N 37°27' E 025°19'0 0.0
2016-May-17 16:31N 37°27' E 025°19'  

Dump ship's entire track history